Time;durP1;ratioP1;P1;durP2;ratioP2;P2;SDS_P1;SDS_P2;PMS_P1;PMS_P2;Temp;Humidity;BMP_temperature;BMP_pressure;BME280_temperature;BME280_humidity;BME280_pressure;Samples;Min_cycle;Max_cycle;Signal;HPM_P1;HPM_P2
2023/12/07 00:02:28;;;;;;;13.57;10.80;;;2.80;1.00;;;;;;7375069;19;20593;-67
2023/12/07 00:04:58;;;;;;;13.55;10.45;;;2.70;1.00;;;;;;7375201;19;20037;-67
2023/12/07 00:07:28;;;;;;;14.88;10.38;;;2.70;1.00;;;;;;7374069;19;20018;-68
2023/12/07 00:10:00;;;;;;;13.68;9.82;;;2.70;1.00;;;;;;7375372;19;20455;-68
2023/12/07 00:12:30;;;;;;;12.35;9.82;;;2.70;1.00;;;;;;7381879;19;20451;-68
2023/12/07 00:15:01;;;;;;;13.80;10.48;;;2.70;1.00;;;;;;7382203;19;20007;-67
2023/12/07 00:17:34;;;;;;;12.57;10.00;;;2.70;1.00;;;;;;7381992;19;20035;-68
2023/12/07 00:20:04;;;;;;;13.43;10.60;;;2.70;1.00;;;;;;7379171;19;20421;-67
2023/12/07 00:22:34;;;;;;;13.52;9.95;;;2.70;1.00;;;;;;7382552;19;20016;-68
2023/12/07 00:25:08;;;;;;;12.50;10.30;;;2.70;1.00;;;;;;7381595;19;20014;-68
2023/12/07 00:27:38;;;;;;;13.88;10.18;;;2.70;1.00;;;;;;7381378;19;20007;-68
2023/12/07 00:30:09;;;;;;;14.75;10.18;;;2.70;1.00;;;;;;7383436;19;20021;-68
2023/12/07 00:32:40;;;;;;;13.23;9.35;;;2.70;1.00;;;;;;7382703;19;20010;-67
2023/12/07 00:35:10;;;;;;;11.85;9.52;;;2.70;1.00;;;;;;7379562;19;20520;-68
2023/12/07 00:37:40;;;;;;;12.63;10.00;;;2.70;1.00;;;;;;7381466;19;20480;-68
2023/12/07 00:40:14;;;;;;;16.70;10.48;;;2.80;1.00;;;;;;7385246;19;20019;-68
2023/12/07 00:42:44;;;;;;;13.43;9.52;;;2.70;1.00;;;;;;7375984;19;20006;-67
2023/12/07 00:45:14;;;;;;;13.38;10.30;;;2.70;1.00;;;;;;7381285;19;20014;-68
2023/12/07 00:47:44;;;;;;;14.10;10.05;;;2.70;1.00;;;;;;7380898;19;20451;-68
2023/12/07 00:50:16;;;;;;;11.88;9.68;;;2.60;1.00;;;;;;7380518;19;20505;-68
2023/12/07 00:52:46;;;;;;;12.98;9.77;;;2.60;1.00;;;;;;7380153;19;20018;-68
2023/12/07 00:55:19;;;;;;;14.88;9.98;;;2.60;1.00;;;;;;7377223;19;20035;-67
2023/12/07 00:57:49;;;;;;;12.13;9.43;;;2.60;1.00;;;;;;7377776;19;20019;-68
2023/12/07 01:00:19;;;;;;;12.75;8.85;;;2.60;1.00;;;;;;7379855;19;20412;-68
2023/12/07 01:02:51;;;;;;;11.23;9.50;;;2.60;1.00;;;;;;7380087;19;20015;-67
2023/12/07 01:05:21;;;;;;;15.02;9.63;;;2.70;1.00;;;;;;7379959;19;20031;-68
2023/12/07 01:07:51;;;;;;;11.75;9.57;;;2.70;1.00;;;;;;7379059;19;20032;-67
2023/12/07 01:10:24;;;;;;;13.63;9.30;;;2.70;1.00;;;;;;7380687;19;20014;-68
2023/12/07 01:12:54;;;;;;;14.48;9.88;;;2.70;1.00;;;;;;7380841;19;20010;-67
2023/12/07 01:15:24;;;;;;;13.07;10.02;;;2.80;1.00;;;;;;7384152;19;20049;-68
2023/12/07 01:17:54;;;;;;;12.50;9.38;;;2.70;1.00;;;;;;7380168;19;20381;-68
2023/12/07 01:20:24;;;;;;;11.25;9.15;;;2.70;1.00;;;;;;7380330;19;20011;-67
2023/12/07 01:22:54;;;;;;;12.63;9.52;;;2.70;1.00;;;;;;7379091;19;20481;-68
2023/12/07 01:25:26;;;;;;;14.38;9.98;;;2.70;1.00;;;;;;7378627;19;20010;-67
2023/12/07 01:27:57;;;;;;;13.52;10.10;;;2.70;1.00;;;;;;7379367;19;20024;-67
2023/12/07 01:30:27;;;;;;;16.75;10.10;;;2.70;1.00;;;;;;7379702;19;20013;-68
2023/12/07 01:32:57;;;;;;;15.30;9.57;;;2.70;1.00;;;;;;7379456;19;20006;-67
2023/12/07 01:35:28;;;;;;;12.93;9.35;;;2.70;1.00;;;;;;7379695;19;20111;-68
2023/12/07 01:37:58;;;;;;;14.05;9.85;;;2.70;1.00;;;;;;7378341;19;20011;-67
2023/12/07 01:40:31;;;;;;;14.25;10.07;;;2.70;1.00;;;;;;7378286;19;20025;-67
2023/12/07 01:43:01;;;;;;;15.85;10.38;;;2.70;1.00;;;;;;7378727;19;20032;-68
2023/12/07 01:45:31;;;;;;;12.05;9.40;;;2.70;1.00;;;;;;7377740;19;20070;-67
2023/12/07 01:48:01;;;;;;;15.05;11.13;;;2.60;1.00;;;;;;7377971;19;20019;-67
2023/12/07 01:50:33;;;;;;;14.85;10.48;;;2.60;1.00;;;;;;7378900;19;20011;-68
2023/12/07 01:53:06;;;;;;;13.52;10.35;;;2.60;1.00;;;;;;7378920;19;20018;-68
2023/12/07 01:55:41;;;;;;;16.08;11.45;;;2.60;1.00;;;;;;7378696;19;20006;-68
2023/12/07 01:58:12;;;;;;;16.55;10.73;;;2.70;1.00;;;;;;7378490;19;20086;-68
2023/12/07 02:00:43;;;;;;;17.00;11.65;;;2.60;1.00;;;;;;7380223;19;20006;-68
2023/12/07 02:03:14;;;;;;;17.65;11.68;;;2.60;1.00;;;;;;7374288;19;20007;-68
2023/12/07 02:05:48;;;;;;;12.93;10.20;;;2.60;1.00;;;;;;7376080;19;20017;-68
2023/12/07 02:08:18;;;;;;;14.95;11.20;;;2.60;1.00;;;;;;7379207;19;20499;-68
2023/12/07 02:10:52;;;;;;;17.08;9.85;;;2.60;1.00;;;;;;7378377;19;20006;-68
2023/12/07 02:13:23;;;;;;;13.30;10.55;;;2.60;1.00;;;;;;7378900;19;20023;-67
2023/12/07 02:15:55;;;;;;;13.77;10.63;;;2.60;1.00;;;;;;7376475;19;20086;-67
2023/12/07 02:18:31;;;;;;;16.38;11.63;;;2.60;1.00;;;;;;7377797;19;20014;-68
2023/12/07 02:21:09;;;;;;;14.30;10.88;;;2.60;1.00;;;;;;7378353;19;20475;-67
2023/12/07 02:23:42;;;;;;;15.30;10.75;;;2.50;1.00;;;;;;7377717;19;20003;-68
2023/12/07 02:26:28;;;;;;;14.60;11.30;;;2.40;1.00;;;;;;7375708;19;20013;-68
2023/12/07 02:29:00;;;;;;;16.00;11.40;;;2.40;1.00;;;;;;7377311;19;20355;-68
2023/12/07 02:31:31;;;;;;;15.25;11.02;;;2.40;1.00;;;;;;7378292;19;20014;-68
2023/12/07 02:34:01;;;;;;;15.50;11.27;;;2.30;1.20;;;;;;7376884;19;20014;-68
2023/12/07 02:36:35;;;;;;;17.40;11.95;;;2.30;5.20;;;;;;7377227;19;20011;-68
2023/12/07 02:39:06;;;;;;;14.90;11.77;;;2.20;9.30;;;;;;7378141;19;20014;-68
2023/12/07 02:41:37;;;;;;;17.55;11.90;;;2.20;13.10;;;;;;7377715;19;20086;-69
2023/12/07 02:44:10;;;;;;;16.23;11.93;;;2.20;17.20;;;;;;7377548;19;20007;-68
2023/12/07 02:46:40;;;;;;;17.30;12.52;;;2.20;21.90;;;;;;7377155;19;20015;-68
2023/12/07 02:49:10;;;;;;;15.63;12.00;;;2.20;26.10;;;;;;7376697;19;20010;-68
2023/12/07 02:51:40;;;;;;;17.02;11.75;;;2.10;27.80;;;;;;7377147;19;20039;-68
2023/12/07 02:54:10;;;;;;;15.52;12.25;;;2.20;29.80;;;;;;7377397;19;20010;-68
2023/12/07 02:56:40;;;;;;;15.27;11.98;;;2.10;29.50;;;;;;7377225;19;20002;-68
2023/12/07 02:59:13;;;;;;;16.23;12.27;;;2.10;29.30;;;;;;7376528;19;20017;-68
2023/12/07 03:01:43;;;;;;;18.65;12.10;;;2.10;34.40;;;;;;7378610;19;20007;-68
2023/12/07 03:04:13;;;;;;;15.68;12.23;;;2.00;38.70;;;;;;7370911;19;20459;-68
2023/12/07 03:06:43;;;;;;;18.13;12.32;;;1.90;38.70;;;;;;7378662;19;20043;-68
2023/12/07 03:09:13;;;;;;;19.77;13.95;;;1.80;40.80;;;;;;7379329;19;20416;-68
2023/12/07 03:11:43;;;;;;;19.70;13.55;;;1.70;42.70;;;;;;7377829;19;20018;-68
2023/12/07 03:14:16;;;;;;;18.38;13.27;;;1.70;47.00;;;;;;7376866;19;20014;-68
2023/12/07 03:16:46;;;;;;;16.00;12.80;;;1.70;58.40;;;;;;7376374;19;20399;-67
2023/12/07 03:19:16;;;;;;;20.15;13.15;;;1.50;66.50;;;;;;7378000;19;20010;-67
2023/12/07 03:21:46;;;;;;;17.52;12.90;;;1.40;69.40;;;;;;7373896;19;20486;-68
2023/12/07 03:24:16;;;;;;;16.67;12.80;;;1.30;76.60;;;;;;7376138;19;20015;-68
2023/12/07 03:26:46;;;;;;;18.80;13.55;;;1.30;83.70;;;;;;7373737;19;20022;-68
2023/12/07 03:29:19;;;;;;;16.00;12.63;;;1.30;91.10;;;;;;7377190;19;20015;-68
2023/12/07 03:31:49;;;;;;;17.77;12.57;;;1.20;94.10;;;;;;7374167;19;20013;-68
2023/12/07 03:34:19;;;;;;;17.10;12.77;;;1.10;97.70;;;;;;7376839;19;20028;-68
2023/12/07 03:36:49;;;;;;;20.55;13.55;;;1.10;99.90;;;;;;7377015;19;20007;-68
2023/12/07 03:39:22;;;;;;;18.88;13.73;;;1.00;99.90;;;;;;7379123;19;20015;-66
2023/12/07 03:41:52;;;;;;;17.83;12.90;;;1.00;99.90;;;;;;7373481;19;20014;-67
2023/12/07 03:44:26;;;;;;;18.10;12.38;;;1.10;99.90;;;;;;7374155;19;20031;-67
2023/12/07 03:46:56;;;;;;;20.52;13.23;;;1.00;99.90;;;;;;7377218;19;20013;-68
2023/12/07 03:49:26;;;;;;;20.73;12.95;;;1.10;99.90;;;;;;7381716;19;20170;-67
2023/12/07 03:51:57;;;;;;;20.25;13.05;;;1.00;99.90;;;;;;7382568;19;20097;-67
2023/12/07 03:54:27;;;;;;;19.67;13.68;;;1.10;99.90;;;;;;7381134;19;20018;-68
2023/12/07 03:56:57;;;;;;;21.17;14.63;;;1.10;99.90;;;;;;7381152;19;20014;-68
2023/12/07 03:59:29;;;;;;;21.48;14.88;;;1.10;99.90;;;;;;7381221;19;20493;-67
2023/12/07 04:01:59;;;;;;;19.65;13.38;;;1.00;99.90;;;;;;7378260;19;20021;-68
2023/12/07 04:04:29;;;;;;;19.92;13.02;;;0.90;99.90;;;;;;7381360;19;20067;-68
2023/12/07 04:06:59;;;;;;;22.05;13.50;;;0.90;99.90;;;;;;7379906;19;20010;-68
2023/12/07 04:09:30;;;;;;;25.25;14.85;;;0.80;99.90;;;;;;7382171;19;20081;-68
2023/12/07 04:12:00;;;;;;;19.58;14.07;;;0.70;99.90;;;;;;7379641;19;20010;-67
2023/12/07 04:14:33;;;;;;;19.75;13.35;;;0.70;99.90;;;;;;7380926;19;20010;-67
2023/12/07 04:17:03;;;;;;;18.80;13.65;;;0.80;99.90;;;;;;7382486;19;20023;-67
2023/12/07 04:19:33;;;;;;;21.08;13.55;;;0.70;99.90;;;;;;7383598;19;20010;-67
2023/12/07 04:22:03;;;;;;;20.60;13.65;;;0.70;99.90;;;;;;7381359;19;20482;-67
2023/12/07 04:24:33;;;;;;;22.10;14.85;;;0.70;99.90;;;;;;7380882;19;20379;-67
2023/12/07 04:27:04;;;;;;;24.10;14.93;;;0.70;99.90;;;;;;7380950;19;20018;-67
2023/12/07 04:29:36;;;;;;;20.90;14.93;;;0.70;99.90;;;;;;7379130;19;20011;-68
2023/12/07 04:32:09;;;;;;;25.00;16.35;;;0.70;99.90;;;;;;7378889;19;20069;-67
2023/12/07 04:34:39;;;;;;;21.63;15.13;;;0.80;99.90;;;;;;7380285;19;20074;-67
2023/12/07 04:37:09;;;;;;;29.73;16.73;;;0.80;99.90;;;;;;7380336;19;20010;-67
2023/12/07 04:39:39;;;;;;;26.67;16.42;;;0.80;99.90;;;;;;7381348;19;20007;-67
2023/12/07 04:42:09;;;;;;;27.05;17.17;;;0.80;99.90;;;;;;7381599;19;20011;-68
2023/12/07 04:44:42;;;;;;;26.08;17.23;;;0.80;99.90;;;;;;7380270;19;20434;-69
2023/12/07 04:47:12;;;;;;;26.02;17.13;;;0.90;99.90;;;;;;7378213;19;20021;-68
2023/12/07 04:49:42;;;;;;;25.63;17.35;;;0.80;99.90;;;;;;7379551;19;20015;-68
2023/12/07 04:52:12;;;;;;;25.98;17.20;;;0.90;99.90;;;;;;7380276;19;20085;-68
2023/12/07 04:54:42;;;;;;;26.67;18.08;;;0.80;99.90;;;;;;7381120;19;20086;-68
2023/12/07 04:57:12;;;;;;;23.75;16.80;;;0.80;99.90;;;;;;7378597;19;20015;-67
2023/12/07 04:59:46;;;;;;;25.85;17.50;;;0.80;99.90;;;;;;7381022;19;20011;-67
2023/12/07 05:02:17;;;;;;;26.08;17.15;;;0.70;99.90;;;;;;7380465;19;21204;-67
2023/12/07 05:04:48;;;;;;;27.58;17.55;;;0.70;99.90;;;;;;7380063;19;20046;-68
2023/12/07 05:07:18;;;;;;;24.30;16.77;;;0.70;99.90;;;;;;7377644;19;20005;-67
2023/12/07 05:09:48;;;;;;;24.00;17.60;;;0.70;99.90;;;;;;7380385;19;20074;-67
2023/12/07 05:12:18;;;;;;;24.63;18.13;;;0.70;99.90;;;;;;7378637;19;20514;-67
2023/12/07 05:14:50;;;;;;;26.02;17.25;;;0.70;99.90;;;;;;7378549;19;20003;-67
2023/12/07 05:17:21;;;;;;;26.50;17.60;;;0.70;99.90;;;;;;7378318;19;20486;-67
2023/12/07 05:19:51;;;;;;;24.95;17.13;;;0.60;99.90;;;;;;7378685;19;20015;-67
2023/12/07 05:22:22;;;;;;;29.20;18.08;;;0.60;99.90;;;;;;7377510;19;20003;-67
2023/12/07 05:24:54;;;;;;;28.65;18.10;;;0.50;99.90;;;;;;7371510;19;20017;-67
2023/12/07 05:27:24;;;;;;;29.85;18.15;;;0.60;99.90;;;;;;7376508;19;20014;-67
2023/12/07 05:29:57;;;;;;;27.58;17.15;;;0.60;99.90;;;;;;7378706;19;20436;-67
2023/12/07 05:32:27;;;;;;;30.92;19.80;;;0.60;99.90;;;;;;7377459;19;20011;-66
2023/12/07 05:34:58;;;;;;;26.48;17.95;;;0.60;99.90;;;;;;7379080;19;20348;-66
2023/12/07 05:37:28;;;;;;;29.23;18.38;;;0.60;99.90;;;;;;7379094;19;20007;-68
2023/12/07 05:39:58;;;;;;;29.48;18.33;;;0.60;99.90;;;;;;7378377;19;20067;-67
2023/12/07 05:42:28;;;;;;;26.52;17.23;;;0.70;99.90;;;;;;7374180;19;20010;-66
2023/12/07 05:45:01;;;;;;;26.58;16.88;;;0.60;99.90;;;;;;7379551;19;20049;-66
2023/12/07 05:47:33;;;;;;;29.10;17.20;;;0.60;99.90;;;;;;7373646;19;20012;-67
2023/12/07 05:50:06;;;;;;;27.23;17.42;;;0.50;99.90;;;;;;7377635;19;20002;-67
2023/12/07 05:52:38;;;;;;;25.63;18.05;;;0.50;99.90;;;;;;7378968;19;20117;-67
2023/12/07 05:55:09;;;;;;;25.02;17.45;;;0.50;99.90;;;;;;7378491;19;20507;-67
2023/12/07 05:57:40;;;;;;;28.58;16.33;;;0.50;99.90;;;;;;7378081;19;20026;-67
2023/12/07 06:00:16;;;;;;;28.42;17.75;;;0.40;99.90;;;;;;7378920;19;20045;-67
2023/12/07 06:02:46;;;;;;;25.55;16.77;;;0.50;99.90;;;;;;7378889;19;20071;-67
2023/12/07 06:05:16;;;;;;;26.83;18.67;;;0.50;99.90;;;;;;7381206;19;20121;-68
2023/12/07 06:07:46;;;;;;;26.27;17.25;;;0.50;99.90;;;;;;7380033;19;20768;-67
2023/12/07 06:10:16;;;;;;;25.50;17.08;;;0.40;99.90;;;;;;7375186;19;20467;-66
2023/12/07 06:12:46;;;;;;;29.27;19.20;;;0.40;99.90;;;;;;7377425;19;20010;-67
2023/12/07 06:15:19;;;;;;;24.02;16.67;;;0.30;99.90;;;;;;7377921;19;20059;-67
2023/12/07 06:17:49;;;;;;;23.75;15.60;;;0.40;99.90;;;;;;7377546;19;20021;-67
2023/12/07 06:20:20;;;;;;;27.33;16.75;;;0.40;99.90;;;;;;7377646;19;20018;-67
2023/12/07 06:22:49;;;;;;;23.65;14.93;;;0.40;99.90;;;;;;7377302;19;20795;-67
2023/12/07 06:25:19;;;;;;;22.63;15.23;;;0.40;99.90;;;;;;7377276;19;20475;-66
2023/12/07 06:27:49;;;;;;;27.50;15.63;;;0.50;99.90;;;;;;7376514;19;20391;-67
2023/12/07 06:30:22;;;;;;;22.98;15.75;;;0.40;99.90;;;;;;7377829;19;20015;-66
2023/12/07 06:32:52;;;;;;;23.77;16.33;;;0.40;99.90;;;;;;7376403;19;22846;-67
2023/12/07 06:35:23;;;;;;;23.40;15.95;;;0.40;99.90;;;;;;7377452;19;22552;-67
2023/12/07 06:37:53;;;;;;;25.67;15.45;;;0.30;99.90;;;;;;7376422;19;20581;-67
2023/12/07 06:40:23;;;;;;;26.92;16.33;;;0.30;99.90;;;;;;7376438;19;20029;-67
2023/12/07 06:42:53;;;;;;;25.23;16.65;;;0.20;99.90;;;;;;7376784;19;20097;-67
2023/12/07 06:45:25;;;;;;;25.85;16.42;;;0.30;99.90;;;;;;7375488;19;20022;-67
2023/12/07 06:47:55;;;;;;;31.20;18.33;;;0.30;99.90;;;;;;7375665;19;20006;-67
2023/12/07 06:50:25;;;;;;;28.02;16.55;;;0.20;99.90;;;;;;7377211;19;20486;-67
2023/12/07 06:52:55;;;;;;;30.85;16.45;;;0.20;99.90;;;;;;7376176;19;20121;-67
2023/12/07 06:55:25;;;;;;;24.50;16.42;;;0.20;99.90;;;;;;7376140;19;20010;-68
2023/12/07 06:57:55;;;;;;;23.45;16.17;;;0.30;99.90;;;;;;7375180;19;20121;-68
2023/12/07 07:00:28;;;;;;;27.83;17.20;;;0.30;99.90;;;;;;7375931;19;20007;-68
2023/12/07 07:02:58;;;;;;;24.42;16.00;;;0.20;99.90;;;;;;7375380;19;20082;-68
2023/12/07 07:05:28;;;;;;;25.08;15.95;;;0.20;99.90;;;;;;7375963;19;20479;-67
2023/12/07 07:07:58;;;;;;;26.90;18.05;;;0.20;99.90;;;;;;7374371;19;20018;-67
2023/12/07 07:10:28;;;;;;;29.23;17.92;;;0.20;99.90;;;;;;7376549;19;20011;-67
2023/12/07 07:13:02;;;;;;;25.67;16.55;;;0.10;99.90;;;;;;7375416;19;20094;-67
2023/12/07 07:15:36;;;;;;;31.42;18.40;;;0.10;99.90;;;;;;7377067;19;20015;-67
2023/12/07 07:18:06;;;;;;;31.27;18.95;;;0.10;99.90;;;;;;7367345;19;20006;-67
2023/12/07 07:20:36;;;;;;;27.88;18.48;;;0.10;99.90;;;;;;7372861;19;20364;-67
2023/12/07 07:23:07;;;;;;;31.20;19.23;;;0.20;99.90;;;;;;7374778;19;20010;-67
2023/12/07 07:25:38;;;;;;;30.90;19.60;;;0.20;99.90;;;;;;7374828;19;20011;-66
2023/12/07 07:28:08;;;;;;;31.15;19.25;;;0.30;99.90;;;;;;7374035;19;20022;-67
2023/12/07 07:30:41;;;;;;;31.15;18.98;;;0.40;99.90;;;;;;7374760;19;20498;-67
2023/12/07 07:33:11;;;;;;;31.95;20.02;;;0.40;99.90;;;;;;7373605;19;20070;-66
2023/12/07 07:35:41;;;;;;;31.83;20.17;;;0.50;99.90;;;;;;7374643;19;20097;-67
2023/12/07 07:38:11;;;;;;;30.23;19.20;;;0.60;99.90;;;;;;7374917;19;20340;-67
2023/12/07 07:40:41;;;;;;;34.05;20.92;;;0.60;99.90;;;;;;7373360;19;20026;-67
2023/12/07 07:43:12;;;;;;;31.27;19.70;;;0.60;99.90;;;;;;7375647;19;20017;-66
2023/12/07 07:45:45;;;;;;;31.15;19.95;;;0.60;99.90;;;;;;7374430;19;19998;-67
2023/12/07 07:48:16;;;;;;;28.90;19.15;;;0.60;99.90;;;;;;7373788;19;20027;-67
2023/12/07 07:50:49;;;;;;;33.60;19.90;;;0.60;99.90;;;;;;7374419;19;20035;-67
2023/12/07 07:53:20;;;;;;;29.58;19.38;;;0.80;99.90;;;;;;7374835;19;20586;-66
2023/12/07 07:55:50;;;;;;;32.15;19.73;;;0.80;99.90;;;;;;7372488;19;20438;-67
2023/12/07 07:58:21;;;;;;;29.77;19.30;;;0.80;99.90;;;;;;7374189;19;20105;-67
2023/12/07 08:00:53;;;;;;;29.27;19.38;;;0.80;99.90;;;;;;7375025;19;20006;-66
2023/12/07 08:03:24;;;;;;;26.60;17.77;;;0.80;99.90;;;;;;7373938;19;20025;-67
2023/12/07 08:05:54;;;;;;;26.20;18.23;;;0.80;99.90;;;;;;7372365;19;20014;-68
2023/12/07 08:08:26;;;;;;;25.17;17.58;;;0.80;99.90;;;;;;7374163;19;20011;-68
2023/12/07 08:10:56;;;;;;;25.85;17.42;;;0.90;99.90;;;;;;7374314;19;20032;-67
2023/12/07 08:13:26;;;;;;;31.67;17.55;;;1.00;99.90;;;;;;7374459;19;20026;-68
2023/12/07 08:16:00;;;;;;;24.92;16.77;;;1.00;99.90;;;;;;7373448;19;20010;-68
2023/12/07 08:18:31;;;;;;;26.10;17.33;;;1.00;99.90;;;;;;7375463;19;20006;-67
2023/12/07 08:21:01;;;;;;;25.02;17.67;;;1.00;99.90;;;;;;7375546;19;20557;-67
2023/12/07 08:23:31;;;;;;;25.17;17.50;;;1.00;96.40;;;;;;7374990;19;20013;-67
2023/12/07 08:26:01;;;;;;;26.02;18.38;;;1.00;95.20;;;;;;7373016;19;20400;-67
2023/12/07 08:28:31;;;;;;;26.13;18.15;;;1.10;92.30;;;;;;7375203;19;20019;-67
2023/12/07 08:31:04;;;;;;;29.73;19.58;;;1.20;92.00;;;;;;7377522;19;20494;-67
2023/12/07 08:33:34;;;;;;;28.35;18.65;;;1.30;90.60;;;;;;7379609;19;20015;-67
2023/12/07 08:36:05;;;;;;;25.42;16.83;;;1.30;86.00;;;;;;7380909;19;20097;-67
2023/12/07 08:38:35;;;;;;;23.70;16.55;;;1.40;78.90;;;;;;7380563;19;20143;-67
2023/12/07 08:41:05;;;;;;;29.98;17.23;;;1.40;72.70;;;;;;7378708;19;20131;-67
2023/12/07 08:43:35;;;;;;;23.25;16.40;;;1.50;64.10;;;;;;7379437;19;20722;-67
2023/12/07 08:46:09;;;;;;;29.38;16.83;;;1.60;55.80;;;;;;7378721;19;20010;-68
2023/12/07 08:48:39;;;;;;;23.75;16.13;;;1.60;49.70;;;;;;7376612;19;20006;-67
2023/12/07 08:51:12;;;;;;;23.25;15.27;;;1.60;42.00;;;;;;7378016;19;20010;-67
2023/12/07 08:53:42;;;;;;;26.80;17.42;;;1.70;38.20;;;;;;7379355;19;20010;-67
2023/12/07 08:56:13;;;;;;;25.42;18.20;;;1.80;33.70;;;;;;7378985;19;20002;-67
2023/12/07 08:58:44;;;;;;;26.90;17.35;;;1.90;27.40;;;;;;7379495;19;20007;-67
2023/12/07 09:01:16;;;;;;;21.13;15.10;;;1.90;19.90;;;;;;7379723;19;20022;-67
2023/12/07 09:04:01;;;;;;;21.17;15.82;;;2.00;10.50;;;;;;7379218;19;20018;-67
2023/12/07 09:06:31;;;;;;;23.95;15.50;;;2.10;4.40;;;;;;7378412;19;20352;-67
2023/12/07 09:09:01;;;;;;;21.02;15.30;;;2.10;1.00;;;;;;7378272;19;20010;-66
2023/12/07 09:11:31;;;;;;;21.98;15.02;;;2.10;1.00;;;;;;7378855;19;20073;-68
2023/12/07 09:14:01;;;;;;;21.27;15.10;;;2.10;1.00;;;;;;7378086;19;20013;-67
2023/12/07 09:16:34;;;;;;;19.40;14.27;;;2.10;1.00;;;;;;7378738;19;20042;-68
2023/12/07 09:19:05;;;;;;;20.53;15.13;;;2.10;1.00;;;;;;7379354;19;20021;-67
2023/12/07 09:21:35;;;;;;;23.80;15.45;;;2.20;1.00;;;;;;7379610;19;20011;-67
2023/12/07 09:24:06;;;;;;;21.95;15.18;;;2.30;1.00;;;;;;7378837;19;20894;-67
2023/12/07 09:26:37;;;;;;;20.92;15.23;;;2.40;1.00;;;;;;7378489;19;20463;-67
2023/12/07 09:29:08;;;;;;;20.90;14.10;;;2.40;1.00;;;;;;7377749;19;20010;-68
2023/12/07 09:31:41;;;;;;;19.85;14.02;;;2.50;1.00;;;;;;7379679;19;20014;-67
2023/12/07 09:34:11;;;;;;;19.52;14.85;;;2.50;1.00;;;;;;7378808;19;20033;-67
2023/12/07 09:36:42;;;;;;;22.00;15.45;;;2.50;1.00;;;;;;7378979;19;20013;-67
2023/12/07 09:39:13;;;;;;;18.45;14.07;;;2.60;1.00;;;;;;7377827;19;20023;-66
2023/12/07 09:41:47;;;;;;;19.90;14.65;;;2.70;1.00;;;;;;7377799;19;20017;-67
2023/12/07 09:44:17;;;;;;;17.52;13.40;;;2.70;1.00;;;;;;7375687;19;20006;-67
2023/12/07 09:46:49;;;;;;;34.58;24.23;;;2.80;1.00;;;;;;7377291;19;20018;-67
2023/12/07 09:49:20;;;;;;;18.88;14.05;;;2.90;1.00;;;;;;7376177;19;20015;-67
2023/12/07 09:51:51;;;;;;;19.40;13.95;;;3.00;1.00;;;;;;7375528;19;20018;-67
2023/12/07 09:54:25;;;;;;;18.65;14.07;;;2.90;1.00;;;;;;7379244;19;20063;-67
2023/12/07 09:56:56;;;;;;;17.10;13.63;;;2.90;1.00;;;;;;7376961;19;20074;-67
2023/12/07 09:59:27;;;;;;;16.98;13.15;;;3.00;1.00;;;;;;7378357;19;20127;-66
2023/12/07 10:01:59;;;;;;;17.60;12.80;;;2.90;1.00;;;;;;7377690;19;20010;-68
2023/12/07 10:04:29;;;;;;;15.55;13.15;;;3.00;1.00;;;;;;7375715;19;20018;-67
2023/12/07 10:07:00;;;;;;;16.60;13.07;;;3.10;1.00;;;;;;7375742;19;20520;-67
2023/12/07 10:09:29;;;;;;;18.02;13.63;;;3.10;1.00;;;;;;7378209;19;20527;-67
2023/12/07 10:12:06;;;;;;;19.17;13.40;;;3.20;1.00;;;;;;7378135;19;20011;-66
2023/12/07 10:14:37;;;;;;;17.88;12.68;;;3.10;1.00;;;;;;7375095;19;20015;-67
2023/12/07 10:17:10;;;;;;;18.63;13.20;;;3.10;1.00;;;;;;7375796;19;20015;-70
2023/12/07 10:19:40;;;;;;;15.45;11.95;;;3.20;1.00;;;;;;7378134;19;20007;-66
2023/12/07 10:22:17;;;;;;;16.52;12.20;;;3.30;1.00;;;;;;7376374;19;20014;-67
2023/12/07 10:24:47;;;;;;;18.05;11.75;;;3.30;1.00;;;;;;7377531;19;19999;-67
2023/12/07 10:27:18;;;;;;;13.60;11.65;;;3.40;1.00;;;;;;7374163;19;20017;-66
2023/12/07 10:29:48;;;;;;;14.93;11.30;;;3.50;1.00;;;;;;7379220;19;20452;-68
2023/12/07 10:32:21;;;;;;;13.93;10.38;;;3.60;1.00;;;;;;7377619;19;20875;-67
2023/12/07 10:34:51;;;;;;;15.02;11.45;;;3.50;1.00;;;;;;7378315;19;20013;-67
2023/12/07 10:37:22;;;;;;;15.52;11.85;;;3.60;1.00;;;;;;7374280;19;20015;-68
2023/12/07 10:39:52;;;;;;;14.27;10.30;;;3.70;1.00;;;;;;7377286;19;20321;-68
2023/12/07 10:42:26;;;;;;;12.48;10.95;;;3.60;1.00;;;;;;7377154;19;20425;-68
2023/12/07 10:45:01;;;;;;;;;;;3.60;1.00;;;;;;7374259;19;19994;-66
2023/12/07 10:47:36;;;;;;;15.00;11.60;;;3.70;1.00;;;;;;7375309;19;19918;-68
2023/12/07 10:50:11;;;;;;;15.80;11.07;;;3.80;1.00;;;;;;7375834;19;20010;-67
2023/12/07 10:52:47;;;;;;;14.10;11.18;;;3.90;1.00;;;;;;7377531;19;20013;-68
2023/12/07 10:55:20;;;;;;;13.70;11.18;;;3.90;1.00;;;;;;7381796;19;20039;-68
2023/12/07 10:57:51;;;;;;;16.27;11.13;;;4.00;1.00;;;;;;7372370;19;20646;-68
2023/12/07 11:00:23;;;;;;;13.82;11.13;;;4.10;1.00;;;;;;7374305;19;20003;-67
2023/12/07 11:03:13;;;;;;;15.88;12.07;;;4.10;1.00;;;;;;6865799;19;2004665;-67
2023/12/07 11:05:43;;;;;;;17.25;12.27;;;4.10;1.00;;;;;;7374950;19;20021;-67
2023/12/07 11:08:18;;;;;;;18.45;13.52;;;4.10;1.00;;;;;;7375506;19;20014;-68
2023/12/07 11:10:57;;;;;;;15.95;11.57;;;4.20;1.00;;;;;;7374661;19;20011;-68
2023/12/07 11:13:31;;;;;;;15.15;11.55;;;4.20;1.00;;;;;;7374802;19;20017;-67
2023/12/07 11:16:02;;;;;;;16.80;11.70;;;4.20;1.00;;;;;;7374321;19;20030;-67
2023/12/07 11:18:35;;;;;;;19.98;12.40;;;4.20;1.00;;;;;;7373712;19;20050;-67
2023/12/07 11:21:05;;;;;;;16.00;11.23;;;4.30;1.00;;;;;;7375111;19;20024;-68
2023/12/07 11:23:35;;;;;;;16.58;10.95;;;4.30;1.00;;;;;;7375076;19;20113;-67
2023/12/07 11:26:06;;;;;;;13.88;11.02;;;4.30;1.00;;;;;;7373416;19;20007;-68
2023/12/07 11:28:41;;;;;;;13.15;9.98;;;4.30;1.00;;;;;;7375535;19;20336;-68
2023/12/07 11:31:11;;;;;;;15.18;10.55;;;4.40;1.00;;;;;;7376084;19;20010;-68
2023/12/07 11:33:45;;;;;;;11.75;9.70;;;4.30;1.00;;;;;;7375345;19;20017;-67
2023/12/07 11:36:15;;;;;;;13.77;9.77;;;4.40;1.00;;;;;;7374294;19;20814;-68
2023/12/07 11:39:16;;;;;;;11.93;9.80;;;4.50;1.00;;;;;;7374933;19;20495;-68
2023/12/07 11:41:57;;;;;;;16.67;9.75;;;4.50;1.00;;;;;;6866746;19;2004742;-68
2023/12/07 11:44:35;;;;;;;13.63;9.35;;;4.60;1.00;;;;;;7370758;19;20017;-68
2023/12/07 11:47:06;;;;;;;14.98;9.73;;;4.60;1.00;;;;;;7371937;19;20002;-66
2023/12/07 11:49:39;;;;;;;11.65;9.18;;;4.50;1.00;;;;;;7375317;19;20011;-67
2023/12/07 11:52:16;;;;;;;13.98;9.63;;;4.50;1.00;;;;;;7372365;19;20003;-67
2023/12/07 11:54:47;;;;;;;14.82;9.82;;;4.60;1.00;;;;;;7373331;19;20468;-68
2023/12/07 11:57:18;;;;;;;13.93;10.50;;;4.60;1.00;;;;;;7372524;19;20049;-68
2023/12/07 11:59:50;;;;;;;13.30;9.80;;;4.60;1.00;;;;;;7373333;19;20443;-69
2023/12/07 12:02:20;;;;;;;13.10;9.43;;;4.60;1.00;;;;;;7374029;19;20046;-68
2023/12/07 12:04:54;;;;;;;11.88;8.77;;;4.60;1.00;;;;;;7373712;19;20020;-69
2023/12/07 12:07:26;;;;;;;11.68;8.15;;;4.70;1.00;;;;;;7374191;19;20018;-67
2023/12/07 12:09:57;;;;;;;13.43;9.48;;;4.70;1.00;;;;;;7377058;19;20031;-67
2023/12/07 12:12:30;;;;;;;13.60;9.18;;;4.70;1.00;;;;;;7380579;19;20167;-67
2023/12/07 12:15:00;;;;;;;19.15;13.05;;;4.70;1.00;;;;;;7376688;19;20070;-67
2023/12/07 12:17:31;;;;;;;14.35;10.27;;;4.70;1.00;;;;;;7379283;19;20039;-68
2023/12/07 12:20:04;;;;;;;13.65;10.63;;;4.70;1.00;;;;;;7380995;19;20005;-69
2023/12/07 12:22:34;;;;;;;12.63;8.98;;;4.70;1.00;;;;;;7378633;19;20011;-67
2023/12/07 12:25:05;;;;;;;12.10;9.68;;;4.70;1.00;;;;;;7378425;19;20011;-68
2023/12/07 12:27:36;;;;;;;12.05;9.50;;;4.60;1.00;;;;;;7374499;19;20014;-68
2023/12/07 12:30:07;;;;;;;12.77;9.23;;;4.60;1.00;;;;;;7381206;19;20014;-67
2023/12/07 12:32:45;;;;;;;13.35;9.18;;;4.60;1.00;;;;;;7380481;19;20015;-68
2023/12/07 12:35:18;;;;;;;10.70;8.13;;;4.60;1.00;;;;;;7377684;19;20011;-67
2023/12/07 12:37:49;;;;;;;11.77;7.53;;;4.70;1.00;;;;;;7378954;19;20010;-69
2023/12/07 12:40:21;;;;;;;10.68;8.05;;;4.70;1.00;;;;;;7378419;19;20060;-68
2023/12/07 12:42:53;;;;;;;12.20;8.10;;;4.60;1.00;;;;;;7379392;19;20022;-68
2023/12/07 12:45:27;;;;;;;10.48;7.38;;;4.70;1.00;;;;;;7378956;19;20086;-69
2023/12/07 12:47:57;;;;;;;8.63;7.60;;;4.80;1.00;;;;;;7378962;19;20010;-67
2023/12/07 12:50:39;;;;;;;8.40;6.65;;;4.70;1.00;;;;;;7380179;19;20010;-68
2023/12/07 12:53:09;;;;;;;8.77;6.20;;;4.70;1.00;;;;;;7376231;19;20014;-67
2023/12/07 12:55:40;;;;;;;11.68;7.65;;;4.70;1.00;;;;;;7379962;19;20006;-67
2023/12/07 12:58:12;;;;;;;10.50;6.63;;;4.70;1.00;;;;;;7380084;19;20022;-68
2023/12/07 13:00:44;;;;;;;9.27;6.18;;;4.70;1.00;;;;;;7376911;19;20088;-67
2023/12/07 13:03:15;;;;;;;8.27;6.35;;;4.70;1.00;;;;;;7379975;19;20010;-67
2023/12/07 13:05:47;;;;;;;8.27;6.13;;;4.70;1.00;;;;;;7380359;19;20003;-68